Time;durP1;ratioP1;P1;durP2;ratioP2;P2;SDS_P1;SDS_P2;PMS_P1;PMS_P2;Temp;Humidity;BMP_temperature;BMP_pressure;BME280_temperature;BME280_humidity;BME280_pressure;Samples;Min_cycle;Max_cycle;Signal;HPM_P1;HPM_P2
2022/05/23 00:00:15;;;;;;;2.05;1.00;;;;;;;;;;5095435;28;20549;-70
2022/05/23 00:02:41;;;;;;;3.38;1.70;;;;;;;;;;5094065;28;20048;-70
2022/05/23 00:05:08;;;;;;;2.40;1.95;;;;;;;;;;5095333;28;20071;-70
2022/05/23 00:07:35;;;;;;;2.03;1.20;;;;;;;;;;5094198;28;20076;-70
2022/05/23 00:10:03;;;;;;;2.72;1.88;;;;;;;;;;5094152;28;20765;-70
2022/05/23 00:12:30;;;;;;;3.47;1.35;;;;;;;;;;5095492;28;20419;-70
2022/05/23 00:14:56;;;;;;;2.67;1.30;;;;;;;;;;5095113;28;20063;-69
2022/05/23 00:17:23;;;;;;;1.95;1.10;;;;;;;;;;5095038;28;20075;-69
2022/05/23 00:19:50;;;;;;;2.03;1.30;;;;;;;;;;5085630;28;20075;-69
2022/05/23 00:22:16;;;;;;;1.95;1.00;;;;;;;;;;5080520;28;20319;-69
2022/05/23 00:24:44;;;;;;;1.00;0.90;;;;;;;;;;5095324;28;20135;-70
2022/05/23 00:27:12;;;;;;;3.22;1.17;;;;;;;;;;5094703;28;20506;-69
2022/05/23 00:29:38;;;;;;;1.88;1.20;;;;;;;;;;5094905;28;20155;-69
2022/05/23 00:37:35;;;;;;;2.38;1.17;;;;;;;;;;5079993;28;20084;-69
2022/05/23 00:40:02;;;;;;;1.85;1.10;;;;;;;;;;5094958;28;20083;-70
2022/05/23 00:45:16;;;;;;;1.63;1.10;;;;;;;;;;5094864;28;19927;-70
2022/05/23 00:47:42;;;;;;;1.92;1.30;;;;;;;;;;5094609;28;20117;-69
2022/05/23 00:50:18;;;;;;;2.50;1.20;;;;;;;;;;5094473;28;20044;-70
2022/05/23 00:52:44;;;;;;;2.03;1.13;;;;;;;;;;5094691;28;20082;-69
2022/05/23 00:55:16;;;;;;;1.83;1.13;;;;;;;;;;5094693;28;20531;-70
2022/05/23 00:57:44;;;;;;;3.33;1.25;;;;;;;;;;5094233;28;20052;-69
2022/05/23 01:00:11;;;;;;;2.58;1.48;;;;;;;;;;5094428;28;20083;-70
2022/05/23 01:02:39;;;;;;;4.20;1.15;;;;;;;;;;5093867;28;20095;-70
2022/05/23 01:05:07;;;;;;;4.18;1.23;;;;;;;;;;5094356;28;20389;-70
2022/05/23 01:07:33;;;;;;;3.13;1.20;;;;;;;;;;5094349;28;20056;-70
2022/05/23 01:09:59;;;;;;;1.70;1.10;;;;;;;;;;5093956;28;20080;-70
2022/05/23 01:12:27;;;;;;;1.25;1.10;;;;;;;;;;5094298;28;20075;-70
2022/05/23 01:14:55;;;;;;;2.97;1.38;;;;;;;;;;5093837;28;20093;-70
2022/05/23 01:17:22;;;;;;;2.55;1.17;;;;;;;;;;5093949;28;20144;-70
2022/05/23 01:19:49;;;;;;;;;;;;;;;;;;5094635;28;20087;-70
2022/05/23 01:22:20;;;;;;;2.38;1.35;;;;;;;;;;5094083;28;19955;-70
2022/05/23 01:25:03;;;;;;;2.88;1.77;;;;;;;;;;5093795;28;20066;-70
2022/05/23 01:27:30;;;;;;;2.08;0.95;;;;;;;;;;5093955;28;20097;-70
2022/05/23 01:29:57;;;;;;;2.28;1.38;;;;;;;;;;5094020;28;20079;-70
2022/05/23 01:32:23;;;;;;;3.92;1.38;;;;;;;;;;5093865;28;20039;-70
2022/05/23 01:34:51;;;;;;;2.78;1.20;;;;;;;;;;5090726;28;20058;-70
2022/05/23 01:37:17;;;;;;;1.58;1.00;;;;;;;;;;5076629;28;20102;-70
2022/05/23 01:39:44;;;;;;;3.88;1.10;;;;;;;;;;5093518;28;20090;-70
2022/05/23 01:42:10;;;;;;;1.27;1.10;;;;;;;;;;5093406;28;20055;-70
2022/05/23 01:44:37;;;;;;;3.53;1.27;;;;;;;;;;5092241;28;20094;-69
2022/05/23 01:47:08;;;;;;;2.28;0.93;;;;;;;;;;5093501;28;20087;-70
2022/05/23 01:49:34;;;;;;;2.55;1.00;;;;;;;;;;5093185;28;20091;-70
2022/05/23 01:52:00;;;;;;;1.95;0.75;;;;;;;;;;5093539;28;20048;-70
2022/05/23 01:54:27;;;;;;;4.65;0.95;;;;;;;;;;5091748;28;20048;-70
2022/05/23 01:56:53;;;;;;;2.35;0.90;;;;;;;;;;5093425;28;20078;-69
2022/05/23 02:02:06;;;;;;;1.58;0.60;;;;;;;;;;5092950;28;20048;-70
2022/05/23 02:04:32;;;;;;;2.95;1.20;;;;;;;;;;5093004;28;20054;-70
2022/05/23 02:06:58;;;;;;;1.48;0.60;;;;;;;;;;5093199;28;20476;-70
2022/05/23 02:09:28;;;;;;;4.75;1.13;;;;;;;;;;5093126;28;20080;-70
2022/05/23 02:11:54;;;;;;;2.72;0.95;;;;;;;;;;5093075;28;20071;-70
2022/05/23 02:14:21;;;;;;;3.80;0.90;;;;;;;;;;5091143;28;20105;-70
2022/05/23 02:16:47;;;;;;;4.63;1.30;;;;;;;;;;5093031;28;20372;-70
2022/05/23 02:19:14;;;;;;;3.95;0.93;;;;;;;;;;5093013;28;20097;-70
2022/05/23 02:21:40;;;;;;;3.80;1.23;;;;;;;;;;5092930;28;20091;-70
2022/05/23 02:24:06;;;;;;;2.78;1.30;;;;;;;;;;5093073;28;20083;-71
2022/05/23 02:26:33;;;;;;;4.13;1.40;;;;;;;;;;5092875;28;20083;-69
2022/05/23 02:29:00;;;;;;;2.57;1.40;;;;;;;;;;5092690;28;20127;-70
2022/05/23 02:31:27;;;;;;;3.67;1.80;;;;;;;;;;5092401;28;20080;-70
2022/05/23 02:33:54;;;;;;;3.78;1.58;;;;;;;;;;5092690;28;20040;-69
2022/05/23 02:36:21;;;;;;;3.08;1.23;;;;;;;;;;5076823;28;20476;-69
2022/05/23 02:38:47;;;;;;;5.47;1.50;;;;;;;;;;5087775;28;20114;-70
2022/05/23 02:41:13;;;;;;;4.57;1.45;;;;;;;;;;5092430;28;20052;-70
2022/05/23 02:43:40;;;;;;;9.10;1.75;;;;;;;;;;5085978;28;20080;-69
2022/05/23 02:46:06;;;;;;;5.75;1.95;;;;;;;;;;5092216;28;20056;-69
2022/05/23 02:48:33;;;;;;;5.53;1.90;;;;;;;;;;5092254;28;20044;-69
2022/05/23 02:50:59;;;;;;;3.72;1.35;;;;;;;;;;5092344;28;20080;-69
2022/05/23 02:53:26;;;;;;;3.15;1.42;;;;;;;;;;5092252;28;20090;-69
2022/05/23 02:55:52;;;;;;;3.15;1.33;;;;;;;;;;5092621;28;20083;-69
2022/05/23 02:58:19;;;;;;;4.47;1.48;;;;;;;;;;5091956;28;20083;-69
2022/05/23 03:00:45;;;;;;;6.05;1.52;;;;;;;;;;5090766;28;20476;-69
2022/05/23 03:03:11;;;;;;;4.35;1.85;;;;;;;;;;5092114;28;20091;-69
2022/05/23 03:05:39;;;;;;;5.28;1.15;;;;;;;;;;5092078;28;20095;-70
2022/05/23 03:08:06;;;;;;;4.57;1.50;;;;;;;;;;5092051;28;20101;-69
2022/05/23 03:10:33;;;;;;;3.80;1.30;;;;;;;;;;5091878;28;20084;-69
2022/05/23 03:12:59;;;;;;;4.82;1.25;;;;;;;;;;5092184;28;20075;-70
2022/05/23 03:15:27;;;;;;;4.82;1.10;;;;;;;;;;5091738;28;20083;-70
2022/05/23 03:17:53;;;;;;;3.08;1.38;;;;;;;;;;5092048;28;20086;-69
2022/05/23 03:20:20;;;;;;;7.25;1.33;;;;;;;;;;5091991;28;20101;-69
2022/05/23 03:28:16;;;;;;;9.25;1.85;;;;;;;;;;5091790;28;20084;-69
2022/05/23 03:30:44;;;;;;;6.47;1.35;;;;;;;;;;5091557;28;20083;-69
2022/05/23 03:33:11;;;;;;;4.53;1.15;;;;;;;;;;5091934;28;20059;-69
2022/05/23 03:35:38;;;;;;;;;;;;;;;;;;5082704;28;20455;-69
2022/05/23 03:38:05;;;;;;;4.13;1.50;;;;;;;;;;5080705;28;19924;-69
2022/05/23 03:40:32;;;;;;;4.85;1.15;;;;;;;;;;5091467;28;20463;-69
2022/05/23 03:43:00;;;;;;;4.80;1.92;;;;;;;;;;5091849;28;20384;-69
2022/05/23 03:45:27;;;;;;;4.35;1.60;;;;;;;;;;5090339;28;20074;-69
2022/05/23 03:47:54;;;;;;;4.40;1.00;;;;;;;;;;5091748;28;20044;-69
2022/05/23 03:50:22;;;;;;;6.40;1.40;;;;;;;;;;5091396;28;20553;-69
2022/05/23 03:52:48;;;;;;;6.43;1.30;;;;;;;;;;5091301;28;20044;-69
2022/05/23 03:55:15;;;;;;;4.68;1.27;;;;;;;;;;5091650;28;20079;-69
2022/05/23 03:57:41;;;;;;;4.43;1.17;;;;;;;;;;5091900;28;20127;-69
2022/05/23 04:00:08;;;;;;;5.88;2.20;;;;;;;;;;5091496;28;20040;-69
2022/05/23 04:02:35;;;;;;;6.90;1.75;;;;;;;;;;5091355;28;20091;-70
2022/05/23 04:05:01;;;;;;;5.30;1.30;;;;;;;;;;5090048;28;20080;-70
2022/05/23 04:07:28;;;;;;;6.75;1.58;;;;;;;;;;5091315;28;20087;-69
2022/05/23 04:09:54;;;;;;;4.55;1.63;;;;;;;;;;5091420;28;20177;-70
2022/05/23 04:12:21;;;;;;;5.90;1.42;;;;;;;;;;5090440;28;20075;-70
2022/05/23 04:14:47;;;;;;;5.20;1.45;;;;;;;;;;5091450;28;20083;-69
2022/05/23 04:17:14;;;;;;;4.45;1.50;;;;;;;;;;5091546;28;20459;-69
2022/05/23 04:19:40;;;;;;;7.53;1.73;;;;;;;;;;5091392;28;20052;-69
2022/05/23 04:22:06;;;;;;;4.28;1.45;;;;;;;;;;5091427;28;20087;-70
2022/05/23 04:24:33;;;;;;;6.35;1.63;;;;;;;;;;5091477;28;20115;-69
2022/05/23 04:26:59;;;;;;;5.22;1.73;;;;;;;;;;5091173;28;20106;-69
2022/05/23 04:29:26;;;;;;;2.70;1.30;;;;;;;;;;5091472;28;20048;-69
2022/05/23 04:31:52;;;;;;;6.63;1.85;;;;;;;;;;5090997;28;20062;-69
2022/05/23 04:37:04;;;;;;;5.65;1.55;;;;;;;;;;5076373;28;20101;-70
2022/05/23 04:39:30;;;;;;;6.35;1.98;;;;;;;;;;5094922;28;20158;-69
2022/05/23 04:41:56;;;;;;;6.97;1.58;;;;;;;;;;5094855;28;20080;-69
2022/05/23 04:44:23;;;;;;;8.13;1.83;;;;;;;;;;5094714;28;20453;-69
2022/05/23 04:49:50;;;;;;;6.38;2.05;;;;;;;;;;5094463;28;20083;-70
2022/05/23 04:52:22;;;;;;;5.57;1.65;;;;;;;;;;5094485;28;20052;-69
2022/05/23 04:54:49;;;;;;;4.82;1.30;;;;;;;;;;5094737;28;20117;-70
2022/05/23 04:57:16;;;;;;;7.53;2.05;;;;;;;;;;5094645;28;20044;-70
2022/05/23 04:59:42;;;;;;;5.63;1.20;;;;;;;;;;5094481;28;20101;-70
2022/05/23 05:02:09;;;;;;;5.78;1.52;;;;;;;;;;5094319;28;20504;-69
2022/05/23 05:04:35;;;;;;;6.38;1.80;;;;;;;;;;5094500;28;20079;-69
2022/05/23 05:07:02;;;;;;;4.60;1.55;;;;;;;;;;5094472;28;20131;-69
2022/05/23 05:09:28;;;;;;;5.00;1.40;;;;;;;;;;5094270;28;20483;-69
2022/05/23 05:11:54;;;;;;;6.50;2.42;;;;;;;;;;5094305;28;20079;-69
2022/05/23 05:14:21;;;;;;;6.63;1.73;;;;;;;;;;5094258;28;20079;-70
2022/05/23 05:16:47;;;;;;;5.43;1.50;;;;;;;;;;5094209;28;20074;-70
2022/05/23 05:19:14;;;;;;;3.05;1.75;;;;;;;;;;5094181;28;20056;-69
2022/05/23 05:21:40;;;;;;;5.05;1.48;;;;;;;;;;5092791;28;20091;-69
2022/05/23 05:24:13;;;;;;;6.70;1.73;;;;;;;;;;5093860;28;20044;-69
2022/05/23 05:26:40;;;;;;;5.70;1.70;;;;;;;;;;5093908;28;20083;-69
2022/05/23 05:29:06;;;;;;;4.00;1.70;;;;;;;;;;5093896;28;20585;-69
2022/05/23 05:31:35;;;;;;;4.75;1.60;;;;;;;;;;5093886;28;20083;-70
2022/05/23 05:34:04;;;;;;;5.18;1.88;;;;;;;;;;5093631;28;20079;-69
2022/05/23 05:36:33;;;;;;;4.63;1.42;;;;;;;;;;5076690;28;20112;-69
2022/05/23 05:38:59;;;;;;;7.18;1.90;;;;;;;;;;5093173;28;20544;-69
2022/05/23 05:41:38;;;;;;;7.80;1.58;;;;;;;;;;5093877;28;20097;-69
2022/05/23 05:44:06;;;;;;;10.55;2.20;;;;;;;;;;5093723;28;20143;-69
2022/05/23 05:46:44;;;;;;;6.75;1.73;;;;;;;;;;5093712;28;20079;-70
2022/05/23 05:49:12;;;;;;;7.68;1.73;;;;;;;;;;5092122;28;20538;-69
2022/05/23 05:51:40;;;;;;;6.70;2.08;;;;;;;;;;5093496;28;20075;-69
2022/05/23 05:54:06;;;;;;;;;;;;;;;;;;5093872;28;20075;-69
2022/05/23 05:56:33;;;;;;;5.88;1.80;;;;;;;;;;5093502;28;19965;-69
2022/05/23 05:58:59;;;;;;;6.47;1.50;;;;;;;;;;5093115;28;20056;-69
2022/05/23 06:01:26;;;;;;;8.20;1.98;;;;;;;;;;5093291;28;20075;-69
2022/05/23 06:03:52;;;;;;;4.22;1.95;;;;;;;;;;5093350;28;20080;-69
2022/05/23 06:11:55;;;;;;;4.72;1.25;;;;;;;;;;5093268;28;20044;-69
2022/05/23 06:14:21;;;;;;;9.48;2.17;;;;;;;;;;5093202;28;20470;-69
2022/05/23 06:16:48;;;;;;;5.30;1.88;;;;;;;;;;5092402;28;20079;-69
2022/05/23 06:19:14;;;;;;;8.43;2.00;;;;;;;;;;5092635;28;20465;-69
2022/05/23 06:21:41;;;;;;;9.05;1.25;;;;;;;;;;5092253;28;20561;-69
2022/05/23 06:24:07;;;;;;;6.43;1.45;;;;;;;;;;5091330;28;20079;-69
2022/05/23 06:26:34;;;;;;;6.13;2.15;;;;;;;;;;5092446;28;20067;-69
2022/05/23 06:29:00;;;;;;;7.60;1.45;;;;;;;;;;5092044;28;20470;-69
2022/05/23 06:31:27;;;;;;;7.43;1.92;;;;;;;;;;5092435;28;20044;-69
2022/05/23 06:33:53;;;;;;;6.25;1.30;;;;;;;;;;5092079;28;20097;-69
2022/05/23 06:36:19;;;;;;;4.50;1.13;;;;;;;;;;5076732;28;20136;-69
2022/05/23 06:38:47;;;;;;;4.18;1.20;;;;;;;;;;5081602;28;20102;-69
2022/05/23 06:41:14;;;;;;;3.72;1.00;;;;;;;;;;5091383;28;20080;-69
2022/05/23 06:43:42;;;;;;;7.53;1.60;;;;;;;;;;5092063;28;20083;-70
2022/05/23 06:46:09;;;;;;;4.85;1.17;;;;;;;;;;5092576;28;20079;-69
2022/05/23 06:48:36;;;;;;;;;;;;;;;;;;5091590;28;20380;-70
2022/05/23 06:51:02;;;;;;;4.17;0.97;;;;;;;;;;5091122;28;19930;-70
2022/05/23 06:53:29;;;;;;;4.27;0.80;;;;;;;;;;5091609;28;20101;-70
2022/05/23 06:55:56;;;;;;;5.03;1.23;;;;;;;;;;5091834;28;21333;-69
2022/05/23 06:58:22;;;;;;;3.63;0.80;;;;;;;;;;5091645;28;20133;-71
2022/05/23 07:00:49;;;;;;;5.32;1.15;;;;;;;;;;5091182;28;20733;-69
2022/05/23 07:03:16;;;;;;;4.95;1.55;;;;;;;;;;5092040;28;20052;-69
2022/05/23 07:13:58;;;;;;;3.65;1.42;;;;;;;;;;5091080;28;20078;-69
2022/05/23 07:16:25;;;;;;;4.10;1.25;;;;;;;;;;5090010;28;20083;-69
2022/05/23 07:18:52;;;;;;;5.67;1.00;;;;;;;;;;5092115;28;20052;-69
2022/05/23 07:21:19;;;;;;;8.13;1.38;;;;;;;;;;5091929;28;20058;-70
2022/05/23 07:23:46;;;;;;;2.97;1.27;;;;;;;;;;5091777;28;20060;-71
2022/05/23 07:26:19;;;;;;;3.10;1.00;;;;;;;;;;5091810;28;20072;-72
2022/05/23 07:28:46;;;;;;;5.50;1.52;;;;;;;;;;5091066;28;20048;-71
2022/05/23 07:31:13;;;;;;;3.50;1.02;;;;;;;;;;5091180;28;20083;-71
2022/05/23 07:33:40;;;;;;;3.17;1.05;;;;;;;;;;5091802;28;20086;-72
2022/05/23 07:36:08;;;;;;;2.57;0.97;;;;;;;;;;5077136;28;20037;-73
2022/05/23 07:38:37;;;;;;;3.92;1.00;;;;;;;;;;5088197;28;20313;-73
2022/05/23 07:41:04;;;;;;;2.72;0.98;;;;;;;;;;5090511;28;20447;-73
2022/05/23 07:43:35;;;;;;;;;;;;;;;;;;5091755;28;20080;-72
2022/05/23 07:46:09;;;;;;;3.33;0.80;;;;;;;;;;5091560;28;20269;-73
2022/05/23 07:48:37;;;;;;;3.17;0.75;;;;;;;;;;5092120;28;20048;-72
2022/05/23 07:51:03;;;;;;;2.80;1.08;;;;;;;;;;5091630;28;20083;-72
2022/05/23 08:01:45;;;;;;;1.83;0.82;;;;;;;;;;5091669;28;20084;-63
2022/05/23 08:04:11;;;;;;;;;;;;;;;;;;5074083;28;20080;-63
2022/05/23 08:06:38;;;;;;;2.67;1.20;;;;;;;;;;5083750;28;19931;-63
2022/05/23 08:09:04;;;;;;;1.57;0.93;;;;;;;;;;5082976;28;20064;-64
2022/05/23 08:11:30;;;;;;;2.77;1.17;;;;;;;;;;5083951;28;20300;-64
2022/05/23 08:13:57;;;;;;;2.67;1.10;;;;;;;;;;5094074;28;20503;-64
2022/05/23 08:16:24;;;;;;;1.85;1.00;;;;;;;;;;5093846;28;20445;-64
2022/05/23 08:18:51;;;;;;;5.05;1.27;;;;;;;;;;5092914;28;20045;-64
2022/05/23 08:21:17;;;;;;;2.03;1.10;;;;;;;;;;5089890;28;20076;-64
2022/05/23 08:23:44;;;;;;;5.23;1.30;;;;;;;;;;5093301;28;21140;-64
2022/05/23 08:26:10;;;;;;;5.23;1.47;;;;;;;;;;5093647;28;20122;-63
2022/05/23 08:28:37;;;;;;;2.08;1.23;;;;;;;;;;5094017;28;20083;-64
2022/05/23 08:31:03;;;;;;;3.03;1.57;;;;;;;;;;5094091;28;20083;-68
2022/05/23 08:33:30;;;;;;;5.00;1.50;;;;;;;;;;5093950;28;20079;-64
2022/05/23 08:35:56;;;;;;;3.60;1.03;;;;;;;;;;5082257;28;20497;-64
2022/05/23 08:38:22;;;;;;;2.40;1.33;;;;;;;;;;5093528;28;20139;-64
2022/05/23 08:41:04;;;;;;;2.70;1.17;;;;;;;;;;5093851;28;20138;-63
2022/05/23 08:43:37;;;;;;;4.40;1.40;;;;;;;;;;5093792;28;20051;-62
2022/05/23 08:46:04;;;;;;;2.40;1.30;;;;;;;;;;5093693;28;20500;-62
2022/05/23 08:48:47;;;;;;;3.55;1.23;;;;;;;;;;5093656;28;20066;-62
2022/05/23 08:51:18;;;;;;;4.28;1.35;;;;;;;;;;5093362;28;20044;-62
2022/05/23 08:53:50;;;;;;;3.40;1.45;;;;;;;;;;5093327;28;20487;-61
2022/05/23 08:56:20;;;;;;;2.70;1.10;;;;;;;;;;5093160;28;20496;-61
2022/05/23 08:58:59;;;;;;;3.17;1.63;;;;;;;;;;5079340;28;20562;-61
2022/05/23 09:01:39;;;;;;;3.38;1.30;;;;;;;;;;5092137;28;20372;-62
2022/05/23 09:04:31;;;;;;;3.55;1.40;;;;;;;;;;5092587;28;20092;-62
2022/05/23 09:06:59;;;;;;;3.08;0.98;;;;;;;;;;5091974;28;20090;-62
2022/05/23 09:09:29;;;;;;;4.10;0.63;;;;;;;;;;5091510;28;20060;-62
2022/05/23 09:12:01;;;;;;;2.97;0.90;;;;;;;;;;5092668;28;20075;-62
2022/05/23 09:14:28;;;;;;;2.72;0.95;;;;;;;;;;5092687;28;20094;-62
2022/05/23 09:16:56;;;;;;;3.75;1.02;;;;;;;;;;5092808;28;20130;-62
2022/05/23 09:19:31;;;;;;;3.17;1.33;;;;;;;;;;5092828;28;20048;-62
2022/05/23 09:22:18;;;;;;;3.28;0.90;;;;;;;;;;5092377;28;20543;-62
2022/05/23 09:24:45;;;;;;;2.55;0.90;;;;;;;;;;5092968;28;20051;-62
2022/05/23 09:27:14;;;;;;;3.72;0.70;;;;;;;;;;5092442;28;20371;-62
2022/05/23 09:29:40;;;;;;;2.20;0.80;;;;;;;;;;5092835;28;20090;-62
2022/05/23 09:32:12;;;;;;;4.38;0.95;;;;;;;;;;5092709;28;20055;-62
2022/05/23 09:34:48;;;;;;;2.38;0.75;;;;;;;;;;5091083;28;20109;-62
2022/05/23 09:37:38;;;;;;;3.47;0.95;;;;;;;;;;5091137;28;20083;-61
2022/05/23 09:40:08;;;;;;;2.50;0.57;;;;;;;;;;5091933;28;20060;-61
2022/05/23 09:48:19;;;;;;;3.65;0.80;;;;;;;;;;5092606;28;20131;-62
2022/05/23 09:50:59;;;;;;;2.63;0.60;;;;;;;;;;5092315;28;20127;-63
2022/05/23 09:53:27;;;;;;;2.75;0.85;;;;;;;;;;5092373;28;20075;-61
2022/05/23 09:56:21;;;;;;;2.10;0.60;;;;;;;;;;5091856;28;20051;-62
2022/05/23 09:58:48;;;;;;;1.77;0.73;;;;;;;;;;5078117;28;20480;-62
2022/05/23 10:01:24;;;;;;;3.15;0.95;;;;;;;;;;5088444;28;20079;-62
2022/05/23 10:03:51;;;;;;;2.35;0.40;;;;;;;;;;5092031;28;20523;-63
2022/05/23 10:06:17;;;;;;;;;;;;;;;;;;5092519;28;20048;-63
2022/05/23 10:08:45;;;;;;;2.30;0.60;;;;;;;;;;5090123;28;19973;-63
2022/05/23 10:11:11;;;;;;;;;;;;;;;;;;5092149;28;20127;-63
2022/05/23 10:13:38;;;;;;;2.63;0.70;;;;;;;;;;5092107;28;19955;-63
2022/05/23 10:16:16;;;;;;;3.10;0.88;;;;;;;;;;5091959;28;20075;-63
2022/05/23 10:18:48;;;;;;;2.60;0.60;;;;;;;;;;5091952;28;20044;-63
2022/05/23 10:21:27;;;;;;;4.03;0.75;;;;;;;;;;5091883;28;20087;-63
2022/05/23 10:23:59;;;;;;;3.30;0.50;;;;;;;;;;5091846;28;20091;-63
2022/05/23 10:26:27;;;;;;;2.08;0.50;;;;;;;;;;5090986;28;20079;-63
2022/05/23 10:28:59;;;;;;;3.58;0.52;;;;;;;;;;5091821;28;20086;-63
2022/05/23 10:31:28;;;;;;;2.10;0.60;;;;;;;;;;5091584;28;20048;-64
2022/05/23 10:34:18;;;;;;;3.60;0.60;;;;;;;;;;5091325;28;20108;-63
2022/05/23 10:36:46;;;;;;;2.97;0.40;;;;;;;;;;5071361;28;20127;-63
2022/05/23 10:42:09;;;;;;;;;;;;;;;;;;5092049;28;20083;-63
2022/05/23 10:44:44;;;;;;;2.20;0.73;;;;;;;;;;5090996;28;19928;-63
2022/05/23 10:47:30;;;;;;;3.38;0.50;;;;;;;;;;5091282;28;20126;-63
2022/05/23 10:50:15;;;;;;;1.75;0.50;;;;;;;;;;5090753;28;20076;-63
2022/05/23 10:52:46;;;;;;;3.60;0.88;;;;;;;;;;5091257;28;20515;-63
2022/05/23 10:55:17;;;;;;;2.38;0.50;;;;;;;;;;5091187;28;20080;-63
2022/05/23 10:57:48;;;;;;;1.77;0.40;;;;;;;;;;5086061;28;20088;-62
2022/05/23 11:00:17;;;;;;;3.25;0.50;;;;;;;;;;5091078;28;20087;-62
2022/05/23 11:03:00;;;;;;;2.30;0.30;;;;;;;;;;5090530;28;20517;-63
2022/05/23 11:05:28;;;;;;;1.88;0.32;;;;;;;;;;5089376;28;20163;-63
2022/05/23 11:08:08;;;;;;;2.97;0.30;;;;;;;;;;5089216;28;20079;-63
2022/05/23 11:10:34;;;;;;;3.85;0.50;;;;;;;;;;5091073;28;20078;-64
2022/05/23 11:13:13;;;;;;;4.40;0.57;;;;;;;;;;5090663;28;20051;-64
2022/05/23 11:15:39;;;;;;;2.53;0.50;;;;;;;;;;5090716;28;20530;-63
2022/05/23 11:18:35;;;;;;;2.63;0.32;;;;;;;;;;5090942;28;20079;-63
2022/05/23 11:21:05;;;;;;;1.87;0.53;;;;;;;;;;5089872;28;20097;-63
2022/05/23 11:23:45;;;;;;;4.18;0.57;;;;;;;;;;5090186;28;20052;-63
2022/05/23 11:26:20;;;;;;;1.75;0.65;;;;;;;;;;5074519;28;20090;-65
2022/05/23 11:34:33;;;;;;;4.90;0.50;;;;;;;;;;5070753;28;20071;-64
2022/05/23 11:39:52;;;;;;;4.00;0.82;;;;;;;;;;5050578;28;20045;-65
2022/05/23 11:42:22;;;;;;;5.28;0.82;;;;;;;;;;5052756;28;20072;-65
2022/05/23 11:44:51;;;;;;;2.45;0.30;;;;;;;;;;5060908;28;20515;-65
2022/05/23 11:47:21;;;;;;;2.83;0.55;;;;;;;;;;5053844;28;20159;-64
2022/05/23 11:49:48;;;;;;;2.95;0.70;;;;;;;;;;5071020;28;20052;-65
2022/05/23 11:52:17;;;;;;;2.60;0.52;;;;;;;;;;5072583;28;20051;-64
2022/05/23 11:54:43;;;;;;;2.92;0.57;;;;;;;;;;5074131;28;20045;-65
2022/05/23 11:57:29;;;;;;;2.13;0.25;;;;;;;;;;5073935;28;20059;-65
2022/05/23 11:59:56;;;;;;;5.00;1.00;;;;;;;;;;5074422;28;20068;-65
2022/05/23 12:02:24;;;;;;;2.38;0.60;;;;;;;;;;5073865;28;20067;-65
2022/05/23 12:04:54;;;;;;;4.88;0.63;;;;;;;;;;5074260;28;20097;-65
2022/05/23 12:07:37;;;;;;;2.53;0.20;;;;;;;;;;5069374;28;20091;-65
2022/05/23 12:10:28;;;;;;;1.00;0.30;;;;;;;;;;5074000;28;20109;-65
2022/05/23 12:12:56;;;;;;;3.22;0.40;;;;;;;;;;5073841;28;20459;-65
2022/05/23 12:15:41;;;;;;;3.78;0.35;;;;;;;;;;5073844;28;20072;-65
2022/05/23 12:18:28;;;;;;;0.88;0.20;;;;;;;;;;5073879;28;20060;-65
2022/05/23 12:20:55;;;;;;;;;;;;;;;;;;5073156;28;20162;-64
2022/05/23 12:23:28;;;;;;;1.48;0.28;;;;;;;;;;5082736;28;20656;-65
2022/05/23 12:26:24;;;;;;;0.75;0.20;;;;;;;;;;5094045;28;20118;-64
2022/05/23 12:28:58;;;;;;;1.52;0.20;;;;;;;;;;5092358;28;20075;-63
2022/05/23 12:31:27;;;;;;;1.73;0.20;;;;;;;;;;5081841;28;20314;-64
2022/05/23 12:34:01;;;;;;;3.50;0.30;;;;;;;;;;5090999;28;20044;-63
2022/05/23 12:36:29;;;;;;;1.63;0.30;;;;;;;;;;5091955;28;20052;-62
2022/05/23 12:39:01;;;;;;;1.45;0.20;;;;;;;;;;5093444;28;20052;-64
2022/05/23 12:41:30;;;;;;;2.92;0.38;;;;;;;;;;5093541;28;20083;-63
2022/05/23 12:44:15;;;;;;;1.30;0.28;;;;;;;;;;5093793;28;20078;-63
2022/05/23 12:47:01;;;;;;;1.58;0.20;;;;;;;;;;5093676;28;20079;-63
2022/05/23 12:49:46;;;;;;;2.15;0.50;;;;;;;;;;5065591;28;20079;-63
2022/05/23 12:52:32;;;;;;;2.17;0.40;;;;;;;;;;5079142;28;20048;-63
2022/05/23 12:55:05;;;;;;;0.47;0.30;;;;;;;;;;5092778;28;20126;-63
2022/05/23 12:57:51;;;;;;;2.30;0.30;;;;;;;;;;5092938;28;20086;-63
2022/05/23 13:00:22;;;;;;;2.55;0.52;;;;;;;;;;5093476;28;20094;-64
2022/05/23 13:02:55;;;;;;;2.50;0.40;;;;;;;;;;5092637;28;20098;-63
2022/05/23 13:05:26;;;;;;;1.35;0.20;;;;;;;;;;5092534;28;20048;-62
2022/05/23 13:07:59;;;;;;;0.98;0.40;;;;;;;;;;5091294;28;20079;-63
2022/05/23 13:10:28;;;;;;;1.55;0.50;;;;;;;;;;5092251;28;20502;-63
2022/05/23 13:12:58;;;;;;;2.53;0.40;;;;;;;;;;5092771;28;20068;-63
2022/05/23 13:15:27;;;;;;;2.75;0.40;;;;;;;;;;5092830;28;20044;-63
2022/05/23 13:22:05;;;;;;;2.42;0.20;;;;;;;;;;5092441;28;20492;-63
2022/05/23 13:23:46;;;;;;;1.15;0.20;;;;;;;;;;5092790;28;20199;-63
2022/05/23 13:26:13;;;;;;;;;;;;;;;;;;5074821;28;20084;-63
2022/05/23 13:28:59;;;;;;;1.23;0.43;;;;;;;;;;5091329;28;19930;-63
2022/05/23 13:31:27;;;;;;;1.77;0.30;;;;;;;;;;5092052;28;20429;-63
2022/05/23 13:33:55;;;;;;;1.55;0.30;;;;;;;;;;5085717;28;20047;-63
2022/05/23 13:36:23;;;;;;;1.17;0.15;;;;;;;;;;5087618;28;20074;-62
2022/05/23 13:39:03;;;;;;;1.00;0.20;;;;;;;;;;5091896;28;20075;-63
2022/05/23 13:41:31;;;;;;;1.13;0.20;;;;;;;;;;5091868;28;20087;-63
2022/05/23 13:43:58;;;;;;;;;;;;;;;;;;5092548;28;20076;-63
2022/05/23 13:46:33;;;;;;;1.33;0.22;;;;;;;;;;5092284;28;19926;-62
2022/05/23 13:49:11;;;;;;;1.42;0.20;;;;;;;;;;5092033;28;20055;-63
2022/05/23 13:51:40;;;;;;;1.88;0.28;;;;;;;;;;5091635;28;20527;-63
2022/05/23 13:54:07;;;;;;;0.88;0.10;;;;;;;;;;5091858;28;20048;-63
2022/05/23 13:56:35;;;;;;;1.47;0.40;;;;;;;;;;5092500;28;20048;-66
2022/05/23 13:59:04;;;;;;;0.45;0.20;;;;;;;;;;5091582;28;20083;-63
2022/05/23 14:01:40;;;;;;;0.68;0.20;;;;;;;;;;5091760;28;20059;-63
2022/05/23 14:04:09;;;;;;;0.98;0.30;;;;;;;;;;5092168;28;20059;-69
2022/05/23 14:06:44;;;;;;;0.80;0.10;;;;;;;;;;5091143;28;20048;-70
2022/05/23 14:09:11;;;;;;;2.45;0.40;;;;;;;;;;5088359;28;20082;-70
2022/05/23 14:11:39;;;;;;;1.02;0.40;;;;;;;;;;5088011;28;20071;-70
2022/05/23 14:14:14;;;;;;;0.17;0.17;;;;;;;;;;5091156;28;20040;-70
2022/05/23 14:16:48;;;;;;;1.02;0.40;;;;;;;;;;5090620;28;20445;-70
2022/05/23 14:19:19;;;;;;;0.82;0.10;;;;;;;;;;5089842;28;20123;-70
2022/05/23 14:21:46;;;;;;;1.02;0.30;;;;;;;;;;5091400;28;20514;-70
2022/05/23 14:24:17;;;;;;;1.03;0.20;;;;;;;;;;5092342;28;20048;-70
2022/05/23 14:26:43;;;;;;;1.88;0.30;;;;;;;;;;5092086;28;20503;-70
2022/05/23 14:29:12;;;;;;;0.80;0.20;;;;;;;;;;5076794;28;20053;-69
2022/05/23 14:31:46;;;;;;;0.73;0.20;;;;;;;;;;5089220;28;20086;-69
2022/05/23 14:34:24;;;;;;;1.52;0.30;;;;;;;;;;5089169;28;20040;-70
2022/05/23 14:36:52;;;;;;;0.98;0.35;;;;;;;;;;5090155;28;20074;-69
2022/05/23 14:39:22;;;;;;;0.28;0.10;;;;;;;;;;5091347;28;20519;-69
2022/05/23 14:41:50;;;;;;;2.38;0.17;;;;;;;;;;5090624;28;20086;-68
2022/05/23 14:44:17;;;;;;;1.95;0.10;;;;;;;;;;5088002;28;20397;-70
2022/05/23 14:47:02;;;;;;;1.35;0.30;;;;;;;;;;5090731;28;20101;-69
2022/05/23 14:49:51;;;;;;;0.77;0.10;;;;;;;;;;5090605;28;20511;-69
2022/05/23 14:52:22;;;;;;;1.02;0.30;;;;;;;;;;5089655;28;20131;-69
2022/05/23 15:00:41;;;;;;;1.33;0.20;;;;;;;;;;5091332;28;20079;-69
2022/05/23 15:03:13;;;;;;;1.80;0.38;;;;;;;;;;5089561;28;20055;-69
2022/05/23 15:05:40;;;;;;;2.10;0.38;;;;;;;;;;5090516;28;20131;-70
2022/05/23 15:08:07;;;;;;;1.40;0.60;;;;;;;;;;5090824;28;20048;-68
2022/05/23 15:10:34;;;;;;;0.95;0.20;;;;;;;;;;5089765;28;20082;-69
2022/05/23 15:13:01;;;;;;;0.75;0.30;;;;;;;;;;5090446;28;20135;-70
2022/05/23 15:15:28;;;;;;;1.23;0.30;;;;;;;;;;5090205;28;20079;-70
2022/05/23 15:17:55;;;;;;;1.77;0.55;;;;;;;;;;5090273;28;20396;-70
2022/05/23 15:20:23;;;;;;;0.50;0.30;;;;;;;;;;5089489;28;20040;-69
2022/05/23 15:22:50;;;;;;;1.42;0.20;;;;;;;;;;5090908;28;20403;-69
2022/05/23 15:25:17;;;;;;;0.73;0.40;;;;;;;;;;5087510;28;20087;-70
2022/05/23 15:27:47;;;;;;;1.00;0.20;;;;;;;;;;5090932;28;20345;-69
2022/05/23 15:30:15;;;;;;;1.25;0.40;;;;;;;;;;5090833;28;20059;-69
2022/05/23 15:32:42;;;;;;;1.25;0.45;;;;;;;;;;5089853;28;20141;-70
2022/05/23 15:35:10;;;;;;;1.50;0.40;;;;;;;;;;5085315;28;20072;-69
2022/05/23 15:37:37;;;;;;;0.85;0.20;;;;;;;;;;5078456;28;20060;-70
2022/05/23 15:40:04;;;;;;;1.83;0.20;;;;;;;;;;5090847;28;20515;-70
2022/05/23 15:42:33;;;;;;;0.90;0.20;;;;;;;;;;5089862;28;20056;-70
2022/05/23 15:45:07;;;;;;;1.35;0.20;;;;;;;;;;5088551;28;20044;-70
2022/05/23 15:47:34;;;;;;;0.20;0.20;;;;;;;;;;5090087;28;20043;-69
2022/05/23 15:50:02;;;;;;;2.33;0.50;;;;;;;;;;5090052;28;20080;-69
2022/05/23 15:52:28;;;;;;;1.05;0.30;;;;;;;;;;5089972;28;20062;-70
2022/05/23 15:54:57;;;;;;;1.17;0.20;;;;;;;;;;5089687;28;20458;-70
2022/05/23 15:57:29;;;;;;;1.52;0.60;;;;;;;;;;5090071;28;20067;-70
2022/05/23 16:00:00;;;;;;;1.02;0.40;;;;;;;;;;5089238;28;20082;-70
2022/05/23 16:02:26;;;;;;;2.35;0.20;;;;;;;;;;5090075;28;20040;-70
2022/05/23 16:04:53;;;;;;;0.30;0.25;;;;;;;;;;5090072;28;20055;-70
2022/05/23 16:07:19;;;;;;;0.90;0.30;;;;;;;;;;5090122;28;20048;-70
2022/05/23 16:09:46;;;;;;;1.15;0.30;;;;;;;;;;5090624;28;20451;-69